Terminal Aerodrome Forecast
Issued by NWS Omaha/Valley, NE

Home | Current Version | Previous Version | Graphics & Text | Print | Product List | Glossary On
Versions: 1 2 3 4 5 6 7 8 9 10 11 12 13 14 15 16 17 18 19 20
000
FTUS43 KOAX 231720
TAFOFK
TAF
KOFK 231720Z 2318/2418 20010KT P6SM SCT020 BKN040
     FM232200 18009KT P6SM BKN070
     FM240200 17006KT P6SM SCT050 BKN250
     FM240800 17006KT 4SM BR SCT007 BKN100
      TEMPO 2409/2413 2SM BR BKN007
     FM241500 15006KT P6SM SCT015 BKN250=

USA.gov is the U.S. government's official web portal to all federal, state and local government web resources and services.